sensor_id;sensor_type;location;lat;lon;timestamp;P1;durP1;ratioP1;P2;durP2;ratioP2
18228;SDS011;9239;50.932;3.142;2023-06-26T00:00:08;5.03;;;4.05;;
18228;SDS011;9239;50.932;3.142;2023-06-26T00:02:36;4.93;;;4.10;;
18228;SDS011;9239;50.932;3.142;2023-06-26T00:05:03;6.40;;;4.22;;
18228;SDS011;9239;50.932;3.142;2023-06-26T00:07:30;7.65;;;3.63;;
18228;SDS011;9239;50.932;3.142;2023-06-26T00:10:00;5.38;;;3.78;;
18228;SDS011;9239;50.932;3.142;2023-06-26T00:12:27;5.70;;;4.10;;
18228;SDS011;9239;50.932;3.142;2023-06-26T00:14:56;5.60;;;4.28;;
18228;SDS011;9239;50.932;3.142;2023-06-26T00:17:23;6.70;;;4.07;;
18228;SDS011;9239;50.932;3.142;2023-06-26T00:19:50;5.07;;;3.88;;
18228;SDS011;9239;50.932;3.142;2023-06-26T00:22:17;6.15;;;4.28;;
18228;SDS011;9239;50.932;3.142;2023-06-26T00:24:44;4.82;;;3.90;;
18228;SDS011;9239;50.932;3.142;2023-06-26T00:27:12;8.48;;;4.45;;
18228;SDS011;9239;50.932;3.142;2023-06-26T00:29:39;6.70;;;4.20;;
18228;SDS011;9239;50.932;3.142;2023-06-26T00:32:06;8.05;;;4.57;;
18228;SDS011;9239;50.932;3.142;2023-06-26T00:34:33;6.13;;;4.30;;
18228;SDS011;9239;50.932;3.142;2023-06-26T00:37:01;9.82;;;4.65;;
18228;SDS011;9239;50.932;3.142;2023-06-26T00:39:29;7.90;;;4.97;;
18228;SDS011;9239;50.932;3.142;2023-06-26T00:41:56;8.88;;;5.20;;
18228;SDS011;9239;50.932;3.142;2023-06-26T00:44:24;6.97;;;5.22;;
18228;SDS011;9239;50.932;3.142;2023-06-26T00:46:51;7.32;;;5.50;;
18228;SDS011;9239;50.932;3.142;2023-06-26T00:49:18;9.07;;;5.07;;
18228;SDS011;9239;50.932;3.142;2023-06-26T00:51:45;8.48;;;5.30;;
18228;SDS011;9239;50.932;3.142;2023-06-26T00:54:12;8.27;;;4.80;;
18228;SDS011;9239;50.932;3.142;2023-06-26T00:56:45;11.82;;;5.15;;
18228;SDS011;9239;50.932;3.142;2023-06-26T00:59:12;12.05;;;5.00;;
18228;SDS011;9239;50.932;3.142;2023-06-26T01:01:40;8.77;;;5.32;;
18228;SDS011;9239;50.932;3.142;2023-06-26T01:04:07;10.85;;;5.07;;
18228;SDS011;9239;50.932;3.142;2023-06-26T01:06:43;14.90;;;5.75;;
18228;SDS011;9239;50.932;3.142;2023-06-26T01:09:14;11.05;;;5.70;;
18228;SDS011;9239;50.932;3.142;2023-06-26T01:11:42;9.93;;;5.10;;
18228;SDS011;9239;50.932;3.142;2023-06-26T01:14:09;8.00;;;4.95;;
18228;SDS011;9239;50.932;3.142;2023-06-26T01:16:37;12.02;;;5.85;;
18228;SDS011;9239;50.932;3.142;2023-06-26T01:19:07;9.50;;;5.20;;
18228;SDS011;9239;50.932;3.142;2023-06-26T01:21:37;9.77;;;5.40;;
18228;SDS011;9239;50.932;3.142;2023-06-26T01:24:12;11.23;;;5.57;;
18228;SDS011;9239;50.932;3.142;2023-06-26T01:26:46;12.32;;;5.70;;
18228;SDS011;9239;50.932;3.142;2023-06-26T01:29:16;9.20;;;5.55;;
18228;SDS011;9239;50.932;3.142;2023-06-26T01:31:46;10.98;;;6.22;;
18228;SDS011;9239;50.932;3.142;2023-06-26T01:34:14;12.95;;;5.65;;
18228;SDS011;9239;50.932;3.142;2023-06-26T01:36:43;11.85;;;6.03;;
18228;SDS011;9239;50.932;3.142;2023-06-26T01:39:12;8.52;;;5.22;;
18228;SDS011;9239;50.932;3.142;2023-06-26T01:41:41;14.38;;;6.53;;
18228;SDS011;9239;50.932;3.142;2023-06-26T01:44:13;10.75;;;5.78;;
18228;SDS011;9239;50.932;3.142;2023-06-26T01:46:52;12.45;;;5.82;;
18228;SDS011;9239;50.932;3.142;2023-06-26T01:49:26;14.23;;;6.68;;
18228;SDS011;9239;50.932;3.142;2023-06-26T01:52:07;12.73;;;6.20;;
18228;SDS011;9239;50.932;3.142;2023-06-26T01:54:49;18.15;;;6.68;;
18228;SDS011;9239;50.932;3.142;2023-06-26T01:57:22;13.90;;;5.60;;
18228;SDS011;9239;50.932;3.142;2023-06-26T01:59:53;11.82;;;6.00;;
18228;SDS011;9239;50.932;3.142;2023-06-26T02:02:22;9.57;;;5.70;;
18228;SDS011;9239;50.932;3.142;2023-06-26T02:04:50;9.15;;;5.15;;
18228;SDS011;9239;50.932;3.142;2023-06-26T02:07:17;12.40;;;5.88;;
18228;SDS011;9239;50.932;3.142;2023-06-26T02:09:44;9.77;;;5.13;;
18228;SDS011;9239;50.932;3.142;2023-06-26T02:12:11;15.65;;;5.97;;
18228;SDS011;9239;50.932;3.142;2023-06-26T02:14:37;11.57;;;5.93;;
18228;SDS011;9239;50.932;3.142;2023-06-26T02:17:06;11.85;;;6.35;;
18228;SDS011;9239;50.932;3.142;2023-06-26T02:19:34;14.18;;;5.00;;
18228;SDS011;9239;50.932;3.142;2023-06-26T02:22:00;12.52;;;5.40;;
18228;SDS011;9239;50.932;3.142;2023-06-26T02:24:27;13.65;;;5.40;;
18228;SDS011;9239;50.932;3.142;2023-06-26T02:26:55;9.90;;;5.07;;
18228;SDS011;9239;50.932;3.142;2023-06-26T02:29:22;9.00;;;5.45;;
18228;SDS011;9239;50.932;3.142;2023-06-26T02:31:49;17.02;;;5.25;;
18228;SDS011;9239;50.932;3.142;2023-06-26T02:34:17;15.15;;;4.97;;
18228;SDS011;9239;50.932;3.142;2023-06-26T02:36:44;10.38;;;4.20;;
18228;SDS011;9239;50.932;3.142;2023-06-26T02:39:11;12.18;;;4.60;;
18228;SDS011;9239;50.932;3.142;2023-06-26T02:41:39;10.30;;;4.50;;
18228;SDS011;9239;50.932;3.142;2023-06-26T02:44:06;10.57;;;4.82;;
18228;SDS011;9239;50.932;3.142;2023-06-26T02:46:33;13.10;;;4.65;;
18228;SDS011;9239;50.932;3.142;2023-06-26T02:49:00;7.95;;;4.18;;
18228;SDS011;9239;50.932;3.142;2023-06-26T02:51:28;10.00;;;4.32;;
18228;SDS011;9239;50.932;3.142;2023-06-26T02:53:55;8.32;;;3.55;;
18228;SDS011;9239;50.932;3.142;2023-06-26T02:56:22;8.07;;;4.07;;
18228;SDS011;9239;50.932;3.142;2023-06-26T02:58:48;10.63;;;4.47;;
18228;SDS011;9239;50.932;3.142;2023-06-26T03:01:15;8.77;;;3.97;;
18228;SDS011;9239;50.932;3.142;2023-06-26T03:03:42;7.20;;;3.95;;
18228;SDS011;9239;50.932;3.142;2023-06-26T03:06:09;10.90;;;3.85;;
18228;SDS011;9239;50.932;3.142;2023-06-26T03:08:37;8.73;;;3.40;;
18228;SDS011;9239;50.932;3.142;2023-06-26T03:11:05;7.78;;;3.15;;
18228;SDS011;9239;50.932;3.142;2023-06-26T03:13:32;10.52;;;3.55;;
18228;SDS011;9239;50.932;3.142;2023-06-26T03:15:59;9.07;;;3.35;;
18228;SDS011;9239;50.932;3.142;2023-06-26T03:18:26;6.97;;;2.67;;
18228;SDS011;9239;50.932;3.142;2023-06-26T03:20:53;7.05;;;3.20;;
18228;SDS011;9239;50.932;3.142;2023-06-26T03:23:21;7.82;;;2.95;;
18228;SDS011;9239;50.932;3.142;2023-06-26T03:25:51;3.95;;;2.30;;
18228;SDS011;9239;50.932;3.142;2023-06-26T03:28:17;7.15;;;2.83;;
18228;SDS011;9239;50.932;3.142;2023-06-26T03:30:44;7.45;;;2.83;;
18228;SDS011;9239;50.932;3.142;2023-06-26T03:33:11;6.70;;;2.78;;
18228;SDS011;9239;50.932;3.142;2023-06-26T03:35:38;9.23;;;3.28;;
18228;SDS011;9239;50.932;3.142;2023-06-26T03:38:05;9.10;;;2.25;;
18228;SDS011;9239;50.932;3.142;2023-06-26T03:40:32;7.07;;;2.47;;
18228;SDS011;9239;50.932;3.142;2023-06-26T03:43:00;7.85;;;2.42;;
18228;SDS011;9239;50.932;3.142;2023-06-26T03:45:27;5.28;;;2.67;;
18228;SDS011;9239;50.932;3.142;2023-06-26T03:47:54;6.80;;;2.30;;
18228;SDS011;9239;50.932;3.142;2023-06-26T03:50:21;5.55;;;2.50;;
18228;SDS011;9239;50.932;3.142;2023-06-26T03:52:48;7.85;;;2.88;;
18228;SDS011;9239;50.932;3.142;2023-06-26T03:55:16;3.97;;;2.00;;
18228;SDS011;9239;50.932;3.142;2023-06-26T03:57:43;4.20;;;2.08;;
18228;SDS011;9239;50.932;3.142;2023-06-26T04:00:13;6.35;;;2.45;;
18228;SDS011;9239;50.932;3.142;2023-06-26T04:02:40;2.90;;;2.17;;
18228;SDS011;9239;50.932;3.142;2023-06-26T04:05:07;6.13;;;1.90;;
18228;SDS011;9239;50.932;3.142;2023-06-26T04:07:34;4.00;;;1.52;;
18228;SDS011;9239;50.932;3.142;2023-06-26T04:10:02;5.38;;;2.25;;
18228;SDS011;9239;50.932;3.142;2023-06-26T04:12:29;4.32;;;1.80;;
18228;SDS011;9239;50.932;3.142;2023-06-26T04:14:55;3.63;;;1.95;;
18228;SDS011;9239;50.932;3.142;2023-06-26T04:17:24;3.83;;;2.03;;
18228;SDS011;9239;50.932;3.142;2023-06-26T04:19:51;3.72;;;1.98;;
18228;SDS011;9239;50.932;3.142;2023-06-26T04:22:17;8.30;;;2.35;;
18228;SDS011;9239;50.932;3.142;2023-06-26T04:24:45;1.70;;;1.50;;
18228;SDS011;9239;50.932;3.142;2023-06-26T04:27:11;3.67;;;1.83;;
18228;SDS011;9239;50.932;3.142;2023-06-26T04:29:39;6.18;;;1.90;;
18228;SDS011;9239;50.932;3.142;2023-06-26T04:32:06;4.82;;;2.58;;
18228;SDS011;9239;50.932;3.142;2023-06-26T04:34:35;5.25;;;2.08;;
18228;SDS011;9239;50.932;3.142;2023-06-26T04:37:06;5.55;;;2.15;;
18228;SDS011;9239;50.932;3.142;2023-06-26T04:39:34;4.20;;;1.90;;
18228;SDS011;9239;50.932;3.142;2023-06-26T04:42:04;4.47;;;1.65;;
18228;SDS011;9239;50.932;3.142;2023-06-26T04:44:32;3.05;;;2.08;;
18228;SDS011;9239;50.932;3.142;2023-06-26T04:46:59;5.13;;;1.98;;
18228;SDS011;9239;50.932;3.142;2023-06-26T04:49:26;6.72;;;2.35;;
18228;SDS011;9239;50.932;3.142;2023-06-26T04:51:56;3.92;;;2.05;;
18228;SDS011;9239;50.932;3.142;2023-06-26T04:54:25;3.65;;;1.70;;
18228;SDS011;9239;50.932;3.142;2023-06-26T04:56:52;4.82;;;2.17;;
18228;SDS011;9239;50.932;3.142;2023-06-26T04:59:19;3.03;;;1.75;;
18228;SDS011;9239;50.932;3.142;2023-06-26T05:01:46;6.25;;;1.60;;
18228;SDS011;9239;50.932;3.142;2023-06-26T05:04:13;4.05;;;2.08;;
18228;SDS011;9239;50.932;3.142;2023-06-26T05:06:40;4.50;;;1.75;;
18228;SDS011;9239;50.932;3.142;2023-06-26T05:09:09;4.75;;;1.95;;
18228;SDS011;9239;50.932;3.142;2023-06-26T05:11:36;2.60;;;2.00;;
18228;SDS011;9239;50.932;3.142;2023-06-26T05:14:03;3.88;;;1.85;;
18228;SDS011;9239;50.932;3.142;2023-06-26T05:16:32;4.70;;;1.90;;
18228;SDS011;9239;50.932;3.142;2023-06-26T05:19:00;3.42;;;1.67;;
18228;SDS011;9239;50.932;3.142;2023-06-26T05:21:27;3.90;;;2.10;;
18228;SDS011;9239;50.932;3.142;2023-06-26T05:23:55;4.55;;;1.88;;
18228;SDS011;9239;50.932;3.142;2023-06-26T05:26:25;4.95;;;2.10;;
18228;SDS011;9239;50.932;3.142;2023-06-26T05:28:53;4.47;;;2.25;;
18228;SDS011;9239;50.932;3.142;2023-06-26T05:31:21;3.15;;;1.67;;
18228;SDS011;9239;50.932;3.142;2023-06-26T05:33:48;3.35;;;1.85;;
18228;SDS011;9239;50.932;3.142;2023-06-26T05:36:16;3.47;;;1.90;;
18228;SDS011;9239;50.932;3.142;2023-06-26T05:38:44;4.05;;;1.95;;
18228;SDS011;9239;50.932;3.142;2023-06-26T05:41:12;4.00;;;2.10;;
18228;SDS011;9239;50.932;3.142;2023-06-26T05:43:41;3.40;;;1.67;;
18228;SDS011;9239;50.932;3.142;2023-06-26T05:46:07;4.03;;;1.92;;
18228;SDS011;9239;50.932;3.142;2023-06-26T05:48:34;4.30;;;2.08;;
18228;SDS011;9239;50.932;3.142;2023-06-26T05:51:01;5.20;;;2.00;;
18228;SDS011;9239;50.932;3.142;2023-06-26T05:53:30;3.08;;;1.90;;
18228;SDS011;9239;50.932;3.142;2023-06-26T05:55:57;4.15;;;2.10;;
18228;SDS011;9239;50.932;3.142;2023-06-26T05:58:25;4.65;;;2.30;;
18228;SDS011;9239;50.932;3.142;2023-06-26T06:00:54;4.68;;;2.30;;
18228;SDS011;9239;50.932;3.142;2023-06-26T06:03:21;2.67;;;1.45;;
18228;SDS011;9239;50.932;3.142;2023-06-26T06:05:49;4.57;;;1.98;;
18228;SDS011;9239;50.932;3.142;2023-06-26T06:08:16;4.10;;;1.90;;
18228;SDS011;9239;50.932;3.142;2023-06-26T06:10:43;8.20;;;2.72;;
18228;SDS011;9239;50.932;3.142;2023-06-26T06:13:10;2.25;;;1.85;;
18228;SDS011;9239;50.932;3.142;2023-06-26T06:15:37;3.80;;;1.80;;
18228;SDS011;9239;50.932;3.142;2023-06-26T06:18:05;3.05;;;1.90;;
18228;SDS011;9239;50.932;3.142;2023-06-26T06:20:32;3.42;;;2.28;;
18228;SDS011;9239;50.932;3.142;2023-06-26T06:22:59;4.50;;;1.98;;
18228;SDS011;9239;50.932;3.142;2023-06-26T06:25:26;5.13;;;2.30;;
18228;SDS011;9239;50.932;3.142;2023-06-26T06:27:53;4.47;;;2.00;;
18228;SDS011;9239;50.932;3.142;2023-06-26T06:30:20;3.45;;;2.22;;
18228;SDS011;9239;50.932;3.142;2023-06-26T06:32:47;3.58;;;1.85;;
18228;SDS011;9239;50.932;3.142;2023-06-26T06:35:18;6.50;;;2.30;;
18228;SDS011;9239;50.932;3.142;2023-06-26T06:37:45;6.72;;;2.35;;
18228;SDS011;9239;50.932;3.142;2023-06-26T06:40:12;5.80;;;2.10;;
18228;SDS011;9239;50.932;3.142;2023-06-26T06:42:39;4.00;;;2.58;;
18228;SDS011;9239;50.932;3.142;2023-06-26T06:45:06;7.70;;;2.60;;
18228;SDS011;9239;50.932;3.142;2023-06-26T06:47:34;4.40;;;2.03;;
18228;SDS011;9239;50.932;3.142;2023-06-26T06:50:01;7.72;;;2.70;;
18228;SDS011;9239;50.932;3.142;2023-06-26T06:52:34;5.50;;;2.42;;
18228;SDS011;9239;50.932;3.142;2023-06-26T06:55:02;4.80;;;2.45;;
18228;SDS011;9239;50.932;3.142;2023-06-26T06:57:31;4.85;;;2.55;;
18228;SDS011;9239;50.932;3.142;2023-06-26T07:00:01;4.63;;;2.40;;
18228;SDS011;9239;50.932;3.142;2023-06-26T07:02:30;3.63;;;2.17;;
18228;SDS011;9239;50.932;3.142;2023-06-26T07:04:57;4.97;;;2.28;;
18228;SDS011;9239;50.932;3.142;2023-06-26T07:07:25;4.72;;;2.00;;
18228;SDS011;9239;50.932;3.142;2023-06-26T07:09:57;9.73;;;2.72;;
18228;SDS011;9239;50.932;3.142;2023-06-26T07:12:24;7.28;;;2.55;;
18228;SDS011;9239;50.932;3.142;2023-06-26T07:14:51;3.63;;;1.80;;
18228;SDS011;9239;50.932;3.142;2023-06-26T07:17:19;7.22;;;2.50;;
18228;SDS011;9239;50.932;3.142;2023-06-26T07:19:46;5.00;;;2.03;;
18228;SDS011;9239;50.932;3.142;2023-06-26T07:22:12;5.75;;;2.70;;
18228;SDS011;9239;50.932;3.142;2023-06-26T07:24:39;4.72;;;2.28;;
18228;SDS011;9239;50.932;3.142;2023-06-26T07:27:08;4.22;;;2.03;;
18228;SDS011;9239;50.932;3.142;2023-06-26T07:29:34;7.35;;;2.38;;
18228;SDS011;9239;50.932;3.142;2023-06-26T07:32:01;4.90;;;2.00;;
18228;SDS011;9239;50.932;3.142;2023-06-26T07:34:28;4.28;;;2.53;;
18228;SDS011;9239;50.932;3.142;2023-06-26T07:36:55;5.43;;;2.30;;
18228;SDS011;9239;50.932;3.142;2023-06-26T07:39:22;5.07;;;2.58;;
18228;SDS011;9239;50.932;3.142;2023-06-26T07:41:49;3.65;;;2.30;;
18228;SDS011;9239;50.932;3.142;2023-06-26T07:44:17;4.07;;;2.55;;
18228;SDS011;9239;50.932;3.142;2023-06-26T07:46:44;5.38;;;2.38;;
18228;SDS011;9239;50.932;3.142;2023-06-26T07:49:11;3.20;;;2.33;;
18228;SDS011;9239;50.932;3.142;2023-06-26T07:51:38;3.08;;;2.35;;
18228;SDS011;9239;50.932;3.142;2023-06-26T07:54:05;5.90;;;2.65;;
18228;SDS011;9239;50.932;3.142;2023-06-26T07:56:35;5.68;;;2.15;;
18228;SDS011;9239;50.932;3.142;2023-06-26T07:59:19;8.00;;;3.20;;
18228;SDS011;9239;50.932;3.142;2023-06-26T08:01:47;4.78;;;2.40;;
18228;SDS011;9239;50.932;3.142;2023-06-26T08:04:14;5.10;;;3.28;;
18228;SDS011;9239;50.932;3.142;2023-06-26T08:06:41;4.57;;;2.58;;
18228;SDS011;9239;50.932;3.142;2023-06-26T08:09:07;4.03;;;2.78;;
18228;SDS011;9239;50.932;3.142;2023-06-26T08:11:34;4.75;;;2.60;;
18228;SDS011;9239;50.932;3.142;2023-06-26T08:14:01;5.90;;;2.90;;
18228;SDS011;9239;50.932;3.142;2023-06-26T08:16:30;6.00;;;2.97;;
18228;SDS011;9239;50.932;3.142;2023-06-26T08:18:56;7.07;;;3.25;;
18228;SDS011;9239;50.932;3.142;2023-06-26T08:21:23;6.57;;;2.90;;
18228;SDS011;9239;50.932;3.142;2023-06-26T08:23:50;7.78;;;3.05;;
18228;SDS011;9239;50.932;3.142;2023-06-26T08:26:17;7.50;;;3.08;;
18228;SDS011;9239;50.932;3.142;2023-06-26T08:28:44;5.15;;;2.60;;
18228;SDS011;9239;50.932;3.142;2023-06-26T08:31:11;3.95;;;2.58;;
18228;SDS011;9239;50.932;3.142;2023-06-26T08:33:39;5.38;;;3.00;;
18228;SDS011;9239;50.932;3.142;2023-06-26T08:36:06;4.68;;;2.40;;
18228;SDS011;9239;50.932;3.142;2023-06-26T08:38:33;5.45;;;2.28;;
18228;SDS011;9239;50.932;3.142;2023-06-26T08:41:00;4.70;;;2.30;;
18228;SDS011;9239;50.932;3.142;2023-06-26T08:43:27;4.80;;;2.40;;
18228;SDS011;9239;50.932;3.142;2023-06-26T08:45:54;5.70;;;2.58;;
18228;SDS011;9239;50.932;3.142;2023-06-26T08:48:21;5.78;;;2.80;;
18228;SDS011;9239;50.932;3.142;2023-06-26T08:50:49;2.83;;;1.80;;
18228;SDS011;9239;50.932;3.142;2023-06-26T08:53:20;5.03;;;2.03;;
18228;SDS011;9239;50.932;3.142;2023-06-26T08:55:53;7.05;;;2.13;;
18228;SDS011;9239;50.932;3.142;2023-06-26T08:58:23;6.05;;;2.15;;
18228;SDS011;9239;50.932;3.142;2023-06-26T09:00:50;2.55;;;1.63;;
18228;SDS011;9239;50.932;3.142;2023-06-26T09:03:17;6.15;;;2.03;;
18228;SDS011;9239;50.932;3.142;2023-06-26T09:05:45;4.20;;;2.55;;
18228;SDS011;9239;50.932;3.142;2023-06-26T09:08:13;3.88;;;2.00;;
18228;SDS011;9239;50.932;3.142;2023-06-26T09:10:40;3.63;;;1.98;;
18228;SDS011;9239;50.932;3.142;2023-06-26T09:13:07;2.80;;;1.88;;
18228;SDS011;9239;50.932;3.142;2023-06-26T09:15:37;4.65;;;1.85;;
18228;SDS011;9239;50.932;3.142;2023-06-26T09:18:05;2.80;;;1.42;;
18228;SDS011;9239;50.932;3.142;2023-06-26T09:20:33;2.95;;;1.67;;
18228;SDS011;9239;50.932;3.142;2023-06-26T09:23:00;2.15;;;1.33;;
18228;SDS011;9239;50.932;3.142;2023-06-26T09:25:28;4.32;;;1.35;;
18228;SDS011;9239;50.932;3.142;2023-06-26T09:27:55;3.10;;;1.42;;
18228;SDS011;9239;50.932;3.142;2023-06-26T09:30:23;3.05;;;1.70;;
18228;SDS011;9239;50.932;3.142;2023-06-26T09:32:51;3.45;;;1.60;;
18228;SDS011;9239;50.932;3.142;2023-06-26T09:35:19;2.40;;;1.48;;
18228;SDS011;9239;50.932;3.142;2023-06-26T09:37:46;2.22;;;1.30;;
18228;SDS011;9239;50.932;3.142;2023-06-26T09:40:13;4.30;;;1.50;;
18228;SDS011;9239;50.932;3.142;2023-06-26T09:42:43;3.58;;;1.45;;
18228;SDS011;9239;50.932;3.142;2023-06-26T09:45:17;2.35;;;1.80;;
18228;SDS011;9239;50.932;3.142;2023-06-26T09:47:45;2.38;;;1.30;;
18228;SDS011;9239;50.932;3.142;2023-06-26T09:50:20;2.75;;;1.75;;
18228;SDS011;9239;50.932;3.142;2023-06-26T09:52:48;3.53;;;1.58;;
18228;SDS011;9239;50.932;3.142;2023-06-26T09:55:17;2.75;;;1.35;;
18228;SDS011;9239;50.932;3.142;2023-06-26T09:57:48;5.25;;;1.58;;
18228;SDS011;9239;50.932;3.142;2023-06-26T10:00:16;2.97;;;1.38;;
18228;SDS011;9239;50.932;3.142;2023-06-26T10:02:44;2.97;;;1.90;;
18228;SDS011;9239;50.932;3.142;2023-06-26T10:05:10;2.90;;;1.40;;
18228;SDS011;9239;50.932;3.142;2023-06-26T10:07:38;3.45;;;1.45;;
18228;SDS011;9239;50.932;3.142;2023-06-26T10:10:07;2.97;;;1.33;;
18228;SDS011;9239;50.932;3.142;2023-06-26T10:12:35;2.67;;;1.60;;
18228;SDS011;9239;50.932;3.142;2023-06-26T10:15:03;2.95;;;1.40;;
18228;SDS011;9239;50.932;3.142;2023-06-26T10:17:34;3.42;;;1.80;;
18228;SDS011;9239;50.932;3.142;2023-06-26T10:20:02;5.15;;;1.83;;
18228;SDS011;9239;50.932;3.142;2023-06-26T10:22:39;4.47;;;1.70;;
18228;SDS011;9239;50.932;3.142;2023-06-26T10:25:08;4.07;;;1.52;;
18228;SDS011;9239;50.932;3.142;2023-06-26T10:27:38;2.13;;;1.30;;
18228;SDS011;9239;50.932;3.142;2023-06-26T10:30:11;2.55;;;1.60;;
18228;SDS011;9239;50.932;3.142;2023-06-26T10:32:40;4.57;;;1.38;;
18228;SDS011;9239;50.932;3.142;2023-06-26T10:35:08;2.53;;;1.33;;
18228;SDS011;9239;50.932;3.142;2023-06-26T10:37:42;4.63;;;1.50;;
18228;SDS011;9239;50.932;3.142;2023-06-26T10:40:10;2.47;;;1.20;;
18228;SDS011;9239;50.932;3.142;2023-06-26T10:42:38;3.15;;;1.63;;
18228;SDS011;9239;50.932;3.142;2023-06-26T10:45:13;9.52;;;1.77;;
18228;SDS011;9239;50.932;3.142;2023-06-26T10:47:41;4.07;;;1.55;;
18228;SDS011;9239;50.932;3.142;2023-06-26T10:50:18;5.07;;;1.40;;
18228;SDS011;9239;50.932;3.142;2023-06-26T10:52:50;2.83;;;1.60;;
18228;SDS011;9239;50.932;3.142;2023-06-26T10:55:34;3.22;;;1.55;;
18228;SDS011;9239;50.932;3.142;2023-06-26T10:58:01;2.00;;;1.33;;
18228;SDS011;9239;50.932;3.142;2023-06-26T11:00:32;5.28;;;1.30;;
18228;SDS011;9239;50.932;3.142;2023-06-26T11:02:59;2.47;;;1.20;;
18228;SDS011;9239;50.932;3.142;2023-06-26T11:05:27;3.42;;;1.38;;
18228;SDS011;9239;50.932;3.142;2023-06-26T11:08:04;3.00;;;1.30;;
18228;SDS011;9239;50.932;3.142;2023-06-26T11:13:20;3.72;;;1.63;;
18228;SDS011;9239;50.932;3.142;2023-06-26T11:15:52;4.65;;;1.58;;
18228;SDS011;9239;50.932;3.142;2023-06-26T11:18:21;2.83;;;1.20;;
18228;SDS011;9239;50.932;3.142;2023-06-26T11:20:50;3.85;;;1.25;;
18228;SDS011;9239;50.932;3.142;2023-06-26T11:23:18;3.42;;;1.27;;
18228;SDS011;9239;50.932;3.142;2023-06-26T11:25:49;2.70;;;1.30;;
18228;SDS011;9239;50.932;3.142;2023-06-26T11:28:16;4.28;;;1.40;;
18228;SDS011;9239;50.932;3.142;2023-06-26T11:30:43;2.35;;;1.45;;
18228;SDS011;9239;50.932;3.142;2023-06-26T11:33:11;2.53;;;1.58;;
18228;SDS011;9239;50.932;3.142;2023-06-26T11:35:38;3.28;;;1.90;;
18228;SDS011;9239;50.932;3.142;2023-06-26T11:38:05;3.67;;;1.42;;
18228;SDS011;9239;50.932;3.142;2023-06-26T11:40:34;2.25;;;1.48;;
18228;SDS011;9239;50.932;3.142;2023-06-26T11:43:02;2.20;;;1.35;;
18228;SDS011;9239;50.932;3.142;2023-06-26T11:45:29;2.42;;;1.50;;
18228;SDS011;9239;50.932;3.142;2023-06-26T11:47:57;2.35;;;1.25;;
18228;SDS011;9239;50.932;3.142;2023-06-26T11:50:27;1.52;;;1.42;;
18228;SDS011;9239;50.932;3.142;2023-06-26T11:52:54;2.80;;;1.27;;
18228;SDS011;9239;50.932;3.142;2023-06-26T11:55:22;6.03;;;2.08;;
18228;SDS011;9239;50.932;3.142;2023-06-26T11:57:49;5.72;;;1.70;;
18228;SDS011;9239;50.932;3.142;2023-06-26T12:00:16;4.40;;;1.52;;
18228;SDS011;9239;50.932;3.142;2023-06-26T12:02:44;2.15;;;1.52;;
18228;SDS011;9239;50.932;3.142;2023-06-26T12:05:11;3.10;;;1.05;;
18228;SDS011;9239;50.932;3.142;2023-06-26T12:07:40;4.28;;;1.85;;
18228;SDS011;9239;50.932;3.142;2023-06-26T12:10:08;4.95;;;1.27;;
18228;SDS011;9239;50.932;3.142;2023-06-26T12:12:36;4.07;;;1.27;;
18228;SDS011;9239;50.932;3.142;2023-06-26T12:15:04;2.15;;;1.30;;
18228;SDS011;9239;50.932;3.142;2023-06-26T12:17:33;3.00;;;1.45;;
18228;SDS011;9239;50.932;3.142;2023-06-26T12:20:03;3.35;;;1.70;;
18228;SDS011;9239;50.932;3.142;2023-06-26T12:22:35;2.60;;;1.70;;
18228;SDS011;9239;50.932;3.142;2023-06-26T12:25:04;3.85;;;1.85;;
18228;SDS011;9239;50.932;3.142;2023-06-26T12:27:35;3.97;;;1.77;;
18228;SDS011;9239;50.932;3.142;2023-06-26T12:30:03;2.85;;;1.65;;
18228;SDS011;9239;50.932;3.142;2023-06-26T12:32:31;2.60;;;1.75;;
18228;SDS011;9239;50.932;3.142;2023-06-26T12:34:58;1.77;;;1.45;;
18228;SDS011;9239;50.932;3.142;2023-06-26T12:37:25;4.82;;;2.28;;
18228;SDS011;9239;50.932;3.142;2023-06-26T12:39:53;4.15;;;2.20;;
18228;SDS011;9239;50.932;3.142;2023-06-26T12:42:22;3.25;;;1.80;;
18228;SDS011;9239;50.932;3.142;2023-06-26T12:44:49;5.00;;;2.08;;
18228;SDS011;9239;50.932;3.142;2023-06-26T12:47:17;5.78;;;1.73;;
18228;SDS011;9239;50.932;3.142;2023-06-26T12:49:52;3.75;;;1.85;;
18228;SDS011;9239;50.932;3.142;2023-06-26T12:52:20;3.25;;;2.10;;
18228;SDS011;9239;50.932;3.142;2023-06-26T12:54:51;1.83;;;1.67;;
18228;SDS011;9239;50.932;3.142;2023-06-26T12:57:18;4.38;;;2.00;;
18228;SDS011;9239;50.932;3.142;2023-06-26T12:59:46;3.33;;;1.90;;
18228;SDS011;9239;50.932;3.142;2023-06-26T13:02:13;4.32;;;1.58;;
18228;SDS011;9239;50.932;3.142;2023-06-26T13:04:40;2.45;;;1.75;;
18228;SDS011;9239;50.932;3.142;2023-06-26T13:07:09;2.45;;;1.65;;
18228;SDS011;9239;50.932;3.142;2023-06-26T13:09:36;5.88;;;1.75;;
18228;SDS011;9239;50.932;3.142;2023-06-26T13:12:04;4.28;;;1.40;;
18228;SDS011;9239;50.932;3.142;2023-06-26T13:14:32;2.25;;;1.33;;
18228;SDS011;9239;50.932;3.142;2023-06-26T13:17:01;4.70;;;1.40;;
18228;SDS011;9239;50.932;3.142;2023-06-26T13:19:28;2.47;;;1.13;;
18228;SDS011;9239;50.932;3.142;2023-06-26T13:21:56;5.07;;;1.35;;
18228;SDS011;9239;50.932;3.142;2023-06-26T13:24:23;3.70;;;1.20;;
18228;SDS011;9239;50.932;3.142;2023-06-26T13:26:50;2.20;;;1.05;;
18228;SDS011;9239;50.932;3.142;2023-06-26T13:29:17;2.20;;;1.00;;
18228;SDS011;9239;50.932;3.142;2023-06-26T13:31:43;2.45;;;1.10;;
18228;SDS011;9239;50.932;3.142;2023-06-26T13:34:20;1.30;;;1.02;;
18228;SDS011;9239;50.932;3.142;2023-06-26T13:36:48;1.75;;;1.00;;
18228;SDS011;9239;50.932;3.142;2023-06-26T13:39:15;3.40;;;1.30;;
18228;SDS011;9239;50.932;3.142;2023-06-26T13:41:42;2.10;;;1.20;;
18228;SDS011;9239;50.932;3.142;2023-06-26T13:44:09;1.52;;;1.08;;
18228;SDS011;9239;50.932;3.142;2023-06-26T13:46:35;2.60;;;1.30;;
18228;SDS011;9239;50.932;3.142;2023-06-26T13:49:02;1.95;;;1.02;;
18228;SDS011;9239;50.932;3.142;2023-06-26T13:51:30;3.85;;;1.60;;
18228;SDS011;9239;50.932;3.142;2023-06-26T13:53:57;3.35;;;1.20;;
18228;SDS011;9239;50.932;3.142;2023-06-26T13:56:25;2.05;;;1.23;;
18228;SDS011;9239;50.932;3.142;2023-06-26T13:58:55;2.17;;;1.35;;
18228;SDS011;9239;50.932;3.142;2023-06-26T14:01:23;2.40;;;1.20;;
18228;SDS011;9239;50.932;3.142;2023-06-26T14:03:50;3.03;;;1.50;;
18228;SDS011;9239;50.932;3.142;2023-06-26T14:06:17;3.50;;;1.15;;
18228;SDS011;9239;50.932;3.142;2023-06-26T14:08:45;3.08;;;1.40;;
18228;SDS011;9239;50.932;3.142;2023-06-26T14:11:12;2.08;;;1.40;;
18228;SDS011;9239;50.932;3.142;2023-06-26T14:13:40;4.10;;;1.50;;
18228;SDS011;9239;50.932;3.142;2023-06-26T14:16:07;1.88;;;1.17;;
18228;SDS011;9239;50.932;3.142;2023-06-26T14:18:34;2.58;;;1.42;;
18228;SDS011;9239;50.932;3.142;2023-06-26T14:21:01;4.38;;;1.63;;
18228;SDS011;9239;50.932;3.142;2023-06-26T14:23:29;3.50;;;1.70;;
18228;SDS011;9239;50.932;3.142;2023-06-26T14:25:57;2.28;;;1.40;;
18228;SDS011;9239;50.932;3.142;2023-06-26T14:28:24;1.92;;;1.38;;
18228;SDS011;9239;50.932;3.142;2023-06-26T14:30:51;2.97;;;1.73;;
18228;SDS011;9239;50.932;3.142;2023-06-26T14:33:17;3.33;;;1.35;;
18228;SDS011;9239;50.932;3.142;2023-06-26T14:35:44;3.65;;;1.63;;
18228;SDS011;9239;50.932;3.142;2023-06-26T14:38:12;5.05;;;1.65;;
18228;SDS011;9239;50.932;3.142;2023-06-26T14:40:39;6.28;;;1.88;;
18228;SDS011;9239;50.932;3.142;2023-06-26T14:43:07;4.35;;;1.70;;
18228;SDS011;9239;50.932;3.142;2023-06-26T14:45:34;4.60;;;1.80;;
18228;SDS011;9239;50.932;3.142;2023-06-26T14:48:01;4.28;;;2.08;;
18228;SDS011;9239;50.932;3.142;2023-06-26T14:50:28;4.25;;;1.95;;
18228;SDS011;9239;50.932;3.142;2023-06-26T14:52:55;4.43;;;1.98;;
18228;SDS011;9239;50.932;3.142;2023-06-26T14:55:22;5.38;;;2.40;;
18228;SDS011;9239;50.932;3.142;2023-06-26T14:57:49;3.85;;;1.92;;
18228;SDS011;9239;50.932;3.142;2023-06-26T15:00:17;4.22;;;1.83;;
18228;SDS011;9239;50.932;3.142;2023-06-26T15:02:45;3.58;;;2.22;;
18228;SDS011;9239;50.932;3.142;2023-06-26T15:05:11;4.53;;;1.90;;
18228;SDS011;9239;50.932;3.142;2023-06-26T15:07:38;3.55;;;1.73;;